createdAt,value
2023-04-04T00:01:07.274Z,18.27
2023-04-04T00:04:01.231Z,18.26
2023-04-04T00:06:55.020Z,18.28
2023-04-04T00:09:49.031Z,18.27
2023-04-04T00:12:43.095Z,18.26
2023-04-04T00:15:37.068Z,18.27
2023-04-04T00:18:30.611Z,18.23
2023-04-04T00:21:25.543Z,18.22
2023-04-04T00:24:19.286Z,18.23
2023-04-04T00:27:12.840Z,18.20
2023-04-04T00:30:08.589Z,18.23
2023-04-04T00:33:03.531Z,18.22
2023-04-04T00:35:57.467Z,18.19
2023-04-04T00:38:51.837Z,18.20
2023-04-04T00:41:45.713Z,18.20
2023-04-04T00:44:39.548Z,18.19
2023-04-04T00:47:36.334Z,18.18
2023-04-04T00:50:32.145Z,18.18
2023-04-04T00:53:27.170Z,18.16
2023-04-04T00:56:22.744Z,18.19
2023-04-04T00:59:17.145Z,18.20
2023-04-04T01:02:11.396Z,18.15
2023-04-04T01:05:06.206Z,18.15
2023-04-04T01:08:00.144Z,18.13
2023-04-04T01:10:54.041Z,18.10
2023-04-04T01:13:48.705Z,18.11
2023-04-04T01:16:43.686Z,18.13
2023-04-04T01:19:44.574Z,18.14
2023-04-04T01:22:39.942Z,18.13
2023-04-04T01:25:35.206Z,18.10
2023-04-04T01:28:28.894Z,18.14
2023-04-04T01:31:34.468Z,18.05
2023-04-04T01:34:33.518Z,18.06
2023-04-04T01:37:37.971Z,18.04
2023-04-04T01:40:37.463Z,18.05
2023-04-04T01:43:33.003Z,18.04
2023-04-04T01:46:27.285Z,18.05
2023-04-04T01:49:20.901Z,18.04
2023-04-04T01:52:14.686Z,18.02
2023-04-04T01:55:09.606Z,18.02
2023-04-04T01:58:03.580Z,18.02
2023-04-04T02:00:57.945Z,18.00
2023-04-04T02:03:51.693Z,17.99
2023-04-04T02:06:45.438Z,17.98
2023-04-04T02:09:39.449Z,17.95
2023-04-04T02:12:33.275Z,17.98
2023-04-04T02:15:27.599Z,17.98
2023-04-04T02:18:21.330Z,17.95
2023-04-04T02:21:14.946Z,17.95
2023-04-04T02:24:10.080Z,17.94
2023-04-04T02:27:04.491Z,17.93
2023-04-04T02:29:58.151Z,17.96
2023-04-04T02:32:51.883Z,17.94
2023-04-04T02:35:45.958Z,17.96
2023-04-04T02:38:22.776Z,18.00
2023-04-04T02:41:16.479Z,17.94
2023-04-04T02:44:10.927Z,17.92
2023-04-04T02:47:04.768Z,17.93
2023-04-04T02:49:58.648Z,17.93
2023-04-04T02:52:54.858Z,17.91
2023-04-04T02:55:48.802Z,17.88
2023-04-04T02:58:42.885Z,17.89
2023-04-04T03:01:36.756Z,17.85
2023-04-04T03:04:30.368Z,17.84
2023-04-04T03:07:23.960Z,17.82
2023-04-04T03:10:17.920Z,17.86
2023-04-04T03:13:11.560Z,17.90
2023-04-04T03:16:07.678Z,17.85
2023-04-04T03:19:01.433Z,17.85
2023-04-04T03:21:37.773Z,17.82
2023-04-04T03:24:31.430Z,17.82
2023-04-04T03:27:25.005Z,17.80
2023-04-04T03:30:18.897Z,17.80
2023-04-04T03:33:12.942Z,17.76
2023-04-04T03:36:10.573Z,17.82
2023-04-04T03:39:02.830Z,17.83
2023-04-04T03:41:56.410Z,17.84
2023-04-04T03:44:50.012Z,17.80
2023-04-04T03:47:43.611Z,17.80
2023-04-04T03:50:38.418Z,17.81
2023-04-04T03:53:32.239Z,17.76
2023-04-04T03:56:25.966Z,17.80
2023-04-04T03:59:19.692Z,17.75
2023-04-04T04:02:13.345Z,17.75
2023-04-04T04:05:07.657Z,17.73
2023-04-04T04:08:01.232Z,17.85
2023-04-04T04:10:55.192Z,17.85
2023-04-04T04:13:48.892Z,17.73
2023-04-04T04:16:45.078Z,17.67
2023-04-04T04:19:38.759Z,17.71
2023-04-04T04:22:32.323Z,17.78
2023-04-04T04:25:26.533Z,17.83
2023-04-04T04:28:20.739Z,17.83
2023-04-04T04:31:14.738Z,17.75
2023-04-04T04:34:10.523Z,17.77
2023-04-04T04:37:04.431Z,17.72
2023-04-04T04:39:58.005Z,17.71
2023-04-04T04:42:53.104Z,17.73
2023-04-04T04:45:46.983Z,17.67
2023-04-04T04:48:40.553Z,17.66
2023-04-04T04:51:34.310Z,17.66
2023-04-04T04:54:27.996Z,17.67
2023-04-04T04:57:21.594Z,17.64
2023-04-04T05:00:18.357Z,17.64
2023-04-04T05:03:11.992Z,17.66
2023-04-04T05:06:06.510Z,17.62
2023-04-04T05:09:00.273Z,17.63
2023-04-04T05:11:53.964Z,17.64
2023-04-04T05:14:47.523Z,17.63
2023-04-04T05:17:41.908Z,17.62
2023-04-04T05:20:36.182Z,17.76
2023-04-04T05:23:30.053Z,17.67
2023-04-04T05:26:23.666Z,17.63
2023-04-04T05:29:17.456Z,17.61
2023-04-04T05:32:11.113Z,17.70
2023-04-04T05:35:05.018Z,17.72
2023-04-04T05:37:58.886Z,17.60
2023-04-04T05:40:54.241Z,17.60
2023-04-04T05:43:47.952Z,17.61
2023-04-04T05:46:41.668Z,17.70
2023-04-04T05:49:35.231Z,17.72
2023-04-04T05:52:28.819Z,17.65
2023-04-04T05:55:22.798Z,17.40
2023-04-04T05:58:16.403Z,17.42
2023-04-04T06:01:12.549Z,17.46
2023-04-04T06:04:06.499Z,17.46
2023-04-04T06:07:00.867Z,17.43
2023-04-04T06:09:54.558Z,17.40
2023-04-04T06:12:48.144Z,17.34
2023-04-04T06:15:41.919Z,17.36
2023-04-04T06:18:35.623Z,17.37
2023-04-04T06:21:29.381Z,17.57
2023-04-04T06:24:23.352Z,17.61
2023-04-04T06:27:17.052Z,16.33
2023-04-04T06:30:14.470Z,15.77
2023-04-04T06:33:08.475Z,16.58
2023-04-04T06:36:02.371Z,17.18
2023-04-04T06:38:56.758Z,17.36
2023-04-04T06:41:50.469Z,17.44
2023-04-04T06:44:44.247Z,17.36
2023-04-04T06:47:38.590Z,17.42
2023-04-04T06:50:34.043Z,17.52
2023-04-04T06:53:27.969Z,17.48
2023-04-04T06:56:21.583Z,17.45
2023-04-04T06:59:15.172Z,17.58
2023-04-04T07:02:08.955Z,17.50
2023-04-04T07:05:03.565Z,17.47
2023-04-04T07:07:58.049Z,17.47
2023-04-04T07:10:51.931Z,17.51
2023-04-04T07:13:45.776Z,17.49
2023-04-04T07:16:39.432Z,17.51
2023-04-04T07:19:33.138Z,17.50
2023-04-04T07:22:27.051Z,17.53
2023-04-04T07:25:23.137Z,17.50
2023-04-04T07:28:16.758Z,17.51
2023-04-04T07:31:11.309Z,17.57
2023-04-04T07:34:05.064Z,17.56
2023-04-04T07:36:59.148Z,17.57
2023-04-04T07:39:52.861Z,17.60
2023-04-04T07:42:51.030Z,17.62
2023-04-04T07:45:44.710Z,17.61
2023-04-04T07:48:38.638Z,17.62
2023-04-04T07:51:32.198Z,17.60
2023-04-04T07:54:27.266Z,17.64
2023-04-04T07:57:21.065Z,17.63
2023-04-04T08:00:17.676Z,17.56
2023-04-04T08:03:12.397Z,17.59
2023-04-04T08:06:06.706Z,17.58
2023-04-04T08:09:00.748Z,17.38
2023-04-04T08:11:54.378Z,17.51
2023-04-04T08:14:47.943Z,17.49
2023-04-04T08:17:43.288Z,17.44
2023-04-04T08:20:38.131Z,17.49
2023-04-04T08:23:32.137Z,17.45
2023-04-04T08:26:25.718Z,17.62
2023-04-04T08:29:19.330Z,17.54
2023-04-04T08:32:13.368Z,17.41
2023-04-04T08:35:08.535Z,17.43
2023-04-04T08:38:06.129Z,17.54
2023-04-04T08:40:59.851Z,17.52
2023-04-04T08:43:56.720Z,17.50
2023-04-04T08:46:52.422Z,17.53
2023-04-04T08:49:57.009Z,17.48
2023-04-04T08:52:51.168Z,17.39
2023-04-04T08:55:45.233Z,17.39
2023-04-04T08:58:39.378Z,17.40
2023-04-04T09:01:33.362Z,17.36
2023-04-04T09:04:27.519Z,17.37
2023-04-04T09:07:21.995Z,17.43
2023-04-04T09:10:15.990Z,17.37
2023-04-04T09:13:16.287Z,17.39
2023-04-04T09:16:10.742Z,17.50
2023-04-04T09:19:04.560Z,17.53
2023-04-04T09:21:59.043Z,17.43
2023-04-04T09:24:53.097Z,17.36
2023-04-04T09:27:49.614Z,17.34
2023-04-04T09:30:44.571Z,17.42
2023-04-04T09:33:39.618Z,17.25
2023-04-04T09:36:33.446Z,17.19
2023-04-04T09:39:27.686Z,17.24
2023-04-04T09:42:21.582Z,17.08
2023-04-04T09:45:29.390Z,17.01
2023-04-04T09:48:33.895Z,17.05
2023-04-04T09:51:35.920Z,17.07
2023-04-04T09:54:31.553Z,17.12
2023-04-04T09:57:25.587Z,17.11
2023-04-04T10:00:23.692Z,17.27
2023-04-04T10:03:18.199Z,17.35
2023-04-04T10:06:12.600Z,17.28
2023-04-04T10:09:08.716Z,17.27
2023-04-04T10:12:14.835Z,17.25
2023-04-04T10:15:10.644Z,17.37
2023-04-04T10:18:04.865Z,17.25
2023-04-04T10:21:12.301Z,17.23
2023-04-04T10:24:10.189Z,17.38
2023-04-04T10:27:06.577Z,17.44
2023-04-04T10:30:01.042Z,17.19
2023-04-04T10:33:07.960Z,17.14
2023-04-04T10:36:08.277Z,17.10
2023-04-04T10:39:19.715Z,17.10
2023-04-04T10:42:15.916Z,17.09
2023-04-04T10:47:48.692Z,17.11
2023-04-04T10:50:43.100Z,17.08
2023-04-04T10:53:30.138Z,17.09
2023-04-04T10:56:24.126Z,17.09
2023-04-04T10:59:19.356Z,17.06
2023-04-04T11:02:13.166Z,17.07
2023-04-04T11:05:19.907Z,17.13
2023-04-04T11:08:17.088Z,17.12
2023-04-04T11:11:21.934Z,17.02
2023-04-04T11:14:17.577Z,17.02
2023-04-04T11:17:13.290Z,17.03
2023-04-04T11:20:08.847Z,17.03
2023-04-04T11:23:19.597Z,17.01
2023-04-04T11:26:13.204Z,17.03
2023-04-04T11:29:08.917Z,17.00
2023-04-04T11:32:02.871Z,17.01
2023-04-04T11:34:59.616Z,17.00
2023-04-04T11:38:04.536Z,17.00
2023-04-04T11:40:58.797Z,16.98
2023-04-04T11:43:54.360Z,16.95
2023-04-04T11:46:50.598Z,16.97
2023-04-04T11:49:47.876Z,16.96
2023-04-04T11:52:42.815Z,16.94
2023-04-04T11:55:58.506Z,16.96
2023-04-04T11:59:01.442Z,17.10
2023-04-04T12:02:03.153Z,17.08
2023-04-04T12:04:57.371Z,17.00
2023-04-04T12:07:51.701Z,16.98
2023-04-04T12:10:45.948Z,17.03
2023-04-04T12:13:45.626Z,16.94
2023-04-04T12:16:40.775Z,16.89
2023-04-04T12:19:39.713Z,16.90
2023-04-04T12:22:37.808Z,16.89
2023-04-04T12:25:33.969Z,16.91
2023-04-04T12:28:28.384Z,16.95
2023-04-04T12:31:22.266Z,16.98
2023-04-04T12:34:23.901Z,17.03
2023-04-04T12:37:19.429Z,17.08
2023-04-04T12:40:16.062Z,16.94
2023-04-04T12:43:20.909Z,16.93
2023-04-04T12:46:14.780Z,16.88
2023-04-04T12:49:12.183Z,16.19
2023-04-04T12:52:07.601Z,16.55
2023-04-04T12:55:09.708Z,16.75
2023-04-04T12:58:04.948Z,16.74
2023-04-04T13:01:01.939Z,16.79
2023-04-04T13:03:56.316Z,16.82
2023-04-04T13:06:50.584Z,16.84
2023-04-04T13:09:56.503Z,16.86
2023-04-04T13:13:03.668Z,16.88
2023-04-04T13:15:57.367Z,17.15
2023-04-04T13:18:51.298Z,17.13
2023-04-04T13:21:45.335Z,17.17
2023-04-04T13:24:40.891Z,17.15
2023-04-04T13:27:34.909Z,17.16
2023-04-04T13:30:29.155Z,17.29
2023-04-04T13:33:23.393Z,17.28
2023-04-04T13:36:17.265Z,17.40
2023-04-04T13:39:11.007Z,17.41
2023-04-04T13:42:04.633Z,17.40
2023-04-04T13:44:58.390Z,17.53
2023-04-04T13:47:52.107Z,17.62
2023-04-04T13:50:51.346Z,17.62
2023-04-04T13:53:45.411Z,17.60
2023-04-04T13:56:39.051Z,17.68
2023-04-04T13:59:32.747Z,17.70
2023-04-04T14:02:27.212Z,17.71
2023-04-04T14:05:21.386Z,17.75
2023-04-04T14:08:15.576Z,17.76
2023-04-04T14:11:09.447Z,17.75
2023-04-04T14:13:48.276Z,17.76
2023-04-04T14:16:41.849Z,17.80
2023-04-04T14:19:35.616Z,17.80
2023-04-04T14:22:29.420Z,17.95
2023-04-04T14:25:23.193Z,17.86
2023-04-04T14:28:17.114Z,17.75
2023-04-04T14:31:11.245Z,17.76
2023-04-04T14:34:05.796Z,17.79
2023-04-04T14:37:00.320Z,17.76
2023-04-04T14:39:53.874Z,17.75
2023-04-04T14:42:47.619Z,17.88
2023-04-04T14:45:41.774Z,17.78
2023-04-04T14:48:35.680Z,17.82
2023-04-04T14:51:29.685Z,17.78
2023-04-04T14:54:23.163Z,17.76
2023-04-04T14:57:17.614Z,17.78
2023-04-04T15:00:15.889Z,17.71
2023-04-04T15:03:09.758Z,17.74
2023-04-04T15:06:03.503Z,17.88
2023-04-04T15:08:57.437Z,18.01
2023-04-04T15:11:52.225Z,18.09
2023-04-04T15:14:46.161Z,18.01
2023-04-04T15:17:39.808Z,18.06
2023-04-04T15:20:33.530Z,18.08
2023-04-04T15:23:27.157Z,18.14
2023-04-04T15:26:21.994Z,18.16
2023-04-04T15:29:15.795Z,18.13
2023-04-04T15:32:09.600Z,18.17
2023-04-04T15:35:04.403Z,18.22
2023-04-04T15:37:58.063Z,18.28
2023-04-04T15:40:51.930Z,18.33
2023-04-04T15:43:45.891Z,18.28
2023-04-04T15:46:39.520Z,18.28
2023-04-04T15:49:33.919Z,18.34
2023-04-04T15:52:28.615Z,18.39
2023-04-04T15:55:22.440Z,18.45
2023-04-04T15:58:16.260Z,18.51
2023-04-04T16:01:10.344Z,18.65
2023-04-04T16:04:03.987Z,18.68
2023-04-04T16:06:57.586Z,18.80
2023-04-04T16:09:39.778Z,18.81
2023-04-04T16:12:33.523Z,18.73
2023-04-04T16:15:27.368Z,18.75
2023-04-04T16:18:21.103Z,18.77
2023-04-04T16:21:14.891Z,18.87
2023-04-04T16:24:09.340Z,18.80
2023-04-04T16:27:02.927Z,18.79
2023-04-04T16:29:56.910Z,18.86
2023-04-04T16:32:50.970Z,18.84
2023-04-04T16:35:44.752Z,18.86
2023-04-04T16:38:38.470Z,19.01
2023-04-04T16:41:12.130Z,19.05
2023-04-04T16:43:49.567Z,19.06
2023-04-04T16:46:43.325Z,19.10
2023-04-04T16:49:19.539Z,19.17
2023-04-04T16:52:14.704Z,19.27
2023-04-04T16:55:10.742Z,15.86
2023-04-04T16:58:04.420Z,17.65
2023-04-04T17:00:58.381Z,18.88
2023-04-04T17:03:52.771Z,19.08
2023-04-04T17:06:47.234Z,19.13
2023-04-04T17:09:41.544Z,19.15
2023-04-04T17:12:35.449Z,19.16
2023-04-04T17:15:29.764Z,19.26
2023-04-04T17:18:24.008Z,19.20
2023-04-04T17:21:17.917Z,19.26
2023-04-04T17:24:12.013Z,19.27
2023-04-04T17:27:05.884Z,19.33
2023-04-04T17:29:59.537Z,19.32
2023-04-04T17:32:54.982Z,19.26
2023-04-04T17:35:48.972Z,19.32
2023-04-04T17:38:42.538Z,19.27
2023-04-04T17:41:36.686Z,19.28
2023-04-04T17:44:30.753Z,19.34
2023-04-04T17:47:08.406Z,19.28
2023-04-04T17:50:02.093Z,19.25
2023-04-04T17:52:56.030Z,19.27
2023-04-04T17:55:50.977Z,19.23
2023-04-04T17:58:44.857Z,19.23
2023-04-04T18:01:40.302Z,19.24
2023-04-04T18:04:34.197Z,19.20
2023-04-04T18:07:28.390Z,19.21
2023-04-04T18:10:22.315Z,19.35
2023-04-04T18:13:16.469Z,19.21
2023-04-04T18:16:10.161Z,19.18
2023-04-04T18:19:04.229Z,19.14
2023-04-04T18:22:00.079Z,19.19
2023-04-04T18:24:54.548Z,19.20
2023-04-04T18:27:48.494Z,19.29
2023-04-04T18:30:42.589Z,19.27
2023-04-04T18:33:36.465Z,19.20
2023-04-04T18:36:30.820Z,19.42
2023-04-04T18:39:24.735Z,19.37
2023-04-04T18:42:18.874Z,19.56
2023-04-04T18:45:15.744Z,19.48
2023-04-04T18:48:12.489Z,19.42
2023-04-04T18:51:06.764Z,19.27
2023-04-04T18:54:00.899Z,19.22
2023-04-04T18:56:54.825Z,19.11
2023-04-04T18:59:48.605Z,19.26
2023-04-04T19:02:42.646Z,19.17
2023-04-04T19:05:39.417Z,19.17
2023-04-04T19:08:34.673Z,19.08
2023-04-04T19:11:29.002Z,19.06
2023-04-04T19:14:22.769Z,19.05
2023-04-04T19:17:18.114Z,18.99
2023-04-04T19:52:55.569Z,19.13
2023-04-04T19:55:49.851Z,18.65
2023-04-04T19:58:45.137Z,18.72
2023-04-04T20:01:44.764Z,18.76
2023-04-04T20:04:52.994Z,18.78
2023-04-04T20:07:47.289Z,18.83
2023-04-04T20:10:43.390Z,18.81
2023-04-04T20:13:38.731Z,18.90
2023-04-04T20:20:14.596Z,19.21
2023-04-04T20:23:32.969Z,19.13
2023-04-04T20:26:56.607Z,19.18
2023-04-04T20:29:54.767Z,19.17
2023-04-04T20:33:32.235Z,19.18
2023-04-04T20:36:57.382Z,19.12
2023-04-04T20:39:56.188Z,19.15
2023-04-04T20:42:58.224Z,19.12
2023-04-04T20:45:55.993Z,19.22
2023-04-04T20:49:29.295Z,19.35
2023-04-04T20:52:06.492Z,19.32
2023-04-04T20:55:03.661Z,19.15
2023-04-04T20:57:40.365Z,19.20
2023-04-04T21:01:19.483Z,19.26
2023-04-04T21:03:51.715Z,19.16
2023-04-04T21:06:40.328Z,19.21
2023-04-04T21:09:36.703Z,19.29
2023-04-04T21:12:30.444Z,19.23
2023-04-04T21:15:30.189Z,19.15
2023-04-04T21:18:31.047Z,19.21
2023-04-04T21:21:28.707Z,19.17
2023-04-04T21:24:23.511Z,19.16
2023-04-04T21:27:37.488Z,19.16
2023-04-04T21:30:46.781Z,19.06
2023-04-04T21:33:44.922Z,19.13
2023-04-04T21:36:48.914Z,19.16
2023-04-04T21:39:45.134Z,19.16
2023-04-04T21:42:39.638Z,19.19
2023-04-04T21:45:33.592Z,19.21
2023-04-04T21:48:28.014Z,19.18
2023-04-04T21:52:10.479Z,19.08
2023-04-04T21:54:37.939Z,19.16
2023-04-04T21:57:31.595Z,19.11
2023-04-04T22:00:25.934Z,19.06
2023-04-04T22:03:20.357Z,19.18
2023-04-04T22:06:14.343Z,19.07
2023-04-04T22:09:07.986Z,19.09
2023-04-04T22:12:02.841Z,19.05
2023-04-04T22:14:58.710Z,19.03
2023-04-04T22:17:54.948Z,19.05
2023-04-04T22:20:54.767Z,19.02
2023-04-04T22:23:51.993Z,19.02
2023-04-04T22:26:46.397Z,19.05
2023-04-04T22:29:55.432Z,19.08
2023-04-04T22:33:02.705Z,19.05
2023-04-04T22:36:11.919Z,19.02
2023-04-04T22:39:06.362Z,19.03
2023-04-04T22:42:16.113Z,19.03
2023-04-04T22:45:13.547Z,19.05
2023-04-04T22:48:08.716Z,18.99
2023-04-04T22:51:05.578Z,18.99
2023-04-04T22:54:02.878Z,18.97
2023-04-04T22:56:56.941Z,18.94
2023-04-04T22:59:51.296Z,18.95
2023-04-04T23:02:48.155Z,19.09
2023-04-04T23:05:44.876Z,18.96
2023-04-04T23:08:51.681Z,18.96
2023-04-04T23:11:46.981Z,18.94
2023-04-04T23:14:44.997Z,19.00
2023-04-04T23:17:40.268Z,18.98
2023-04-04T23:20:34.520Z,18.97
2023-04-04T23:23:30.740Z,18.99
2023-04-04T23:26:25.097Z,19.00
2023-04-04T23:29:19.145Z,19.00
2023-04-04T23:32:13.813Z,19.01
2023-04-04T23:35:08.620Z,18.97
2023-04-04T23:37:53.218Z,18.92
2023-04-04T23:40:47.495Z,18.92
2023-04-04T23:43:43.305Z,18.92
2023-04-04T23:46:37.210Z,18.90
2023-04-04T23:49:32.643Z,18.93
2023-04-04T23:52:27.117Z,18.95
2023-04-04T23:55:21.919Z,18.89
2023-04-04T23:58:19.168Z,18.93
